sensor_id;sensor_type;location;lat;lon;timestamp;P1;durP1;ratioP1;P2;durP2;ratioP2
49946;SDS011;35839;48.662;13.300;2022-12-11T16:08:16;25.80;;;13.33;;
49946;SDS011;35839;48.662;13.300;2022-12-11T16:10:44;30.37;;;14.73;;
49946;SDS011;35839;48.662;13.300;2022-12-11T16:13:10;27.77;;;14.53;;
49946;SDS011;35839;48.662;13.300;2022-12-11T16:15:37;25.10;;;14.80;;
49946;SDS011;35839;48.662;13.300;2022-12-11T16:18:05;23.90;;;14.50;;
49946;SDS011;35839;48.662;13.300;2022-12-11T16:20:32;30.03;;;15.40;;
49946;SDS011;35839;48.662;13.300;2022-12-11T16:22:59;27.43;;;13.63;;
49946;SDS011;35839;48.662;13.300;2022-12-11T16:25:25;26.53;;;14.93;;
49946;SDS011;35839;48.662;13.300;2022-12-11T16:27:54;25.83;;;12.97;;
49946;SDS011;35839;48.662;13.300;2022-12-11T16:30:20;23.15;;;13.38;;
49946;SDS011;35839;48.662;13.300;2022-12-11T16:32:46;24.07;;;13.20;;
49946;SDS011;35839;48.662;13.300;2022-12-11T16:35:11;26.87;;;14.60;;
49946;SDS011;35839;48.662;13.300;2022-12-11T16:37:36;24.07;;;13.03;;
49946;SDS011;35839;48.662;13.300;2022-12-11T16:40:02;27.30;;;14.73;;
49946;SDS011;35839;48.662;13.300;2022-12-11T16:42:30;23.13;;;13.57;;
49946;SDS011;35839;48.662;13.300;2022-12-11T16:44:57;26.90;;;14.67;;
49946;SDS011;35839;48.662;13.300;2022-12-11T16:47:32;25.83;;;14.33;;
49946;SDS011;35839;48.662;13.300;2022-12-11T16:49:58;29.80;;;14.60;;
49946;SDS011;35839;48.662;13.300;2022-12-11T16:52:23;29.40;;;14.47;;
49946;SDS011;35839;48.662;13.300;2022-12-11T16:54:48;31.60;;;15.77;;
49946;SDS011;35839;48.662;13.300;2022-12-11T16:57:14;28.43;;;16.63;;
49946;SDS011;35839;48.662;13.300;2022-12-11T16:59:39;29.70;;;15.73;;
49946;SDS011;35839;48.662;13.300;2022-12-11T17:02:05;25.07;;;15.23;;
49946;SDS011;35839;48.662;13.300;2022-12-11T17:04:30;32.00;;;16.87;;
49946;SDS011;35839;48.662;13.300;2022-12-11T17:06:56;28.83;;;16.80;;
49946;SDS011;35839;48.662;13.300;2022-12-11T17:09:22;25.27;;;15.23;;
49946;SDS011;35839;48.662;13.300;2022-12-11T17:11:47;29.87;;;16.77;;
49946;SDS011;35839;48.662;13.300;2022-12-11T17:14:12;26.57;;;16.27;;
49946;SDS011;35839;48.662;13.300;2022-12-11T17:16:38;27.63;;;14.57;;
49946;SDS011;35839;48.662;13.300;2022-12-11T17:19:03;28.53;;;15.63;;
49946;SDS011;35839;48.662;13.300;2022-12-11T17:21:31;28.03;;;14.23;;
49946;SDS011;35839;48.662;13.300;2022-12-11T17:23:56;25.13;;;13.47;;
49946;SDS011;35839;48.662;13.300;2022-12-11T17:26:22;25.40;;;14.67;;
49946;SDS011;35839;48.662;13.300;2022-12-11T17:28:49;24.43;;;13.67;;
49946;SDS011;35839;48.662;13.300;2022-12-11T17:31:16;25.63;;;14.23;;
49946;SDS011;35839;48.662;13.300;2022-12-11T17:33:43;24.80;;;13.57;;
49946;SDS011;35839;48.662;13.300;2022-12-11T17:36:11;22.60;;;13.43;;
49946;SDS011;35839;48.662;13.300;2022-12-11T17:38:41;24.23;;;13.60;;
49946;SDS011;35839;48.662;13.300;2022-12-11T17:41:08;23.70;;;13.60;;
49946;SDS011;35839;48.662;13.300;2022-12-11T17:43:34;28.00;;;14.70;;
49946;SDS011;35839;48.662;13.300;2022-12-11T17:46:00;23.80;;;12.63;;
49946;SDS011;35839;48.662;13.300;2022-12-11T17:48:25;20.47;;;11.60;;
49946;SDS011;35839;48.662;13.300;2022-12-11T17:50:51;23.07;;;12.10;;
49946;SDS011;35839;48.662;13.300;2022-12-11T17:53:17;23.23;;;12.93;;
49946;SDS011;35839;48.662;13.300;2022-12-11T17:55:44;20.27;;;11.47;;
49946;SDS011;35839;48.662;13.300;2022-12-11T17:58:11;18.23;;;10.97;;
49946;SDS011;35839;48.662;13.300;2022-12-11T18:00:39;20.57;;;12.10;;
49946;SDS011;35839;48.662;13.300;2022-12-11T18:03:05;21.87;;;11.20;;
49946;SDS011;35839;48.662;13.300;2022-12-11T18:05:31;22.57;;;12.23;;
49946;SDS011;35839;48.662;13.300;2022-12-11T18:07:56;21.73;;;12.37;;
49946;SDS011;35839;48.662;13.300;2022-12-11T18:10:22;24.93;;;11.87;;
49946;SDS011;35839;48.662;13.300;2022-12-11T18:12:47;24.07;;;11.50;;
49946;SDS011;35839;48.662;13.300;2022-12-11T18:15:13;21.30;;;12.03;;
49946;SDS011;35839;48.662;13.300;2022-12-11T18:17:38;22.77;;;12.13;;
49946;SDS011;35839;48.662;13.300;2022-12-11T18:20:04;20.13;;;10.90;;
49946;SDS011;35839;48.662;13.300;2022-12-11T18:22:30;18.53;;;11.23;;
49946;SDS011;35839;48.662;13.300;2022-12-11T18:24:56;18.27;;;11.57;;
49946;SDS011;35839;48.662;13.300;2022-12-11T18:27:22;21.07;;;11.20;;
49946;SDS011;35839;48.662;13.300;2022-12-11T18:29:48;22.57;;;11.80;;
49946;SDS011;35839;48.662;13.300;2022-12-11T18:32:13;18.80;;;10.93;;
49946;SDS011;35839;48.662;13.300;2022-12-11T18:34:39;19.60;;;11.60;;
49946;SDS011;35839;48.662;13.300;2022-12-11T18:37:04;21.80;;;11.97;;
49946;SDS011;35839;48.662;13.300;2022-12-11T18:39:31;18.13;;;10.70;;
49946;SDS011;35839;48.662;13.300;2022-12-11T18:41:56;21.37;;;11.43;;
49946;SDS011;35839;48.662;13.300;2022-12-11T18:44:21;15.37;;;9.33;;
49946;SDS011;35839;48.662;13.300;2022-12-11T18:46:50;17.83;;;10.70;;
49946;SDS011;35839;48.662;13.300;2022-12-11T18:49:16;20.52;;;10.60;;
49946;SDS011;35839;48.662;13.300;2022-12-11T18:51:42;17.80;;;10.43;;
49946;SDS011;35839;48.662;13.300;2022-12-11T18:54:07;16.97;;;9.70;;
49946;SDS011;35839;48.662;13.300;2022-12-11T18:56:36;15.80;;;9.87;;
49946;SDS011;35839;48.662;13.300;2022-12-11T18:59:02;22.43;;;12.30;;
49946;SDS011;35839;48.662;13.300;2022-12-11T19:01:28;19.60;;;11.63;;
49946;SDS011;35839;48.662;13.300;2022-12-11T19:03:55;20.03;;;11.27;;
49946;SDS011;35839;48.662;13.300;2022-12-11T19:06:22;18.43;;;10.23;;
49946;SDS011;35839;48.662;13.300;2022-12-11T19:08:52;19.43;;;10.20;;
49946;SDS011;35839;48.662;13.300;2022-12-11T19:11:19;18.07;;;10.20;;
49946;SDS011;35839;48.662;13.300;2022-12-11T19:13:46;20.27;;;10.77;;
49946;SDS011;35839;48.662;13.300;2022-12-11T19:16:19;20.10;;;10.43;;
49946;SDS011;35839;48.662;13.300;2022-12-11T19:18:47;21.60;;;11.37;;
49946;SDS011;35839;48.662;13.300;2022-12-11T19:21:13;22.50;;;11.67;;
49946;SDS011;35839;48.662;13.300;2022-12-11T19:23:39;20.13;;;10.77;;
49946;SDS011;35839;48.662;13.300;2022-12-11T19:26:08;18.47;;;10.13;;
49946;SDS011;35839;48.662;13.300;2022-12-11T19:31:00;17.07;;;10.33;;
49946;SDS011;35839;48.662;13.300;2022-12-11T19:33:26;17.57;;;10.17;;
49946;SDS011;35839;48.662;13.300;2022-12-11T19:36:01;20.27;;;11.00;;
49946;SDS011;35839;48.662;13.300;2022-12-11T19:38:28;17.00;;;10.37;;
49946;SDS011;35839;48.662;13.300;2022-12-11T19:40:53;17.87;;;10.07;;
49946;SDS011;35839;48.662;13.300;2022-12-11T19:43:19;17.77;;;10.37;;
49946;SDS011;35839;48.662;13.300;2022-12-11T19:45:44;18.93;;;10.50;;
49946;SDS011;35839;48.662;13.300;2022-12-11T19:48:12;19.57;;;11.20;;
49946;SDS011;35839;48.662;13.300;2022-12-11T19:50:37;17.63;;;9.40;;
49946;SDS011;35839;48.662;13.300;2022-12-11T19:53:03;20.73;;;11.63;;
49946;SDS011;35839;48.662;13.300;2022-12-11T19:55:28;19.70;;;11.20;;
49946;SDS011;35839;48.662;13.300;2022-12-11T19:57:54;21.20;;;11.77;;
49946;SDS011;35839;48.662;13.300;2022-12-11T20:00:19;21.13;;;10.77;;
49946;SDS011;35839;48.662;13.300;2022-12-11T20:02:45;21.27;;;12.20;;
49946;SDS011;35839;48.662;13.300;2022-12-11T20:05:10;19.63;;;10.33;;
49946;SDS011;35839;48.662;13.300;2022-12-11T20:07:35;20.40;;;11.13;;
49946;SDS011;35839;48.662;13.300;2022-12-11T20:10:01;24.77;;;12.90;;
49946;SDS011;35839;48.662;13.300;2022-12-11T20:12:26;21.60;;;12.57;;
49946;SDS011;35839;48.662;13.300;2022-12-11T20:14:53;25.07;;;12.03;;
49946;SDS011;35839;48.662;13.300;2022-12-11T20:17:18;20.27;;;11.20;;
49946;SDS011;35839;48.662;13.300;2022-12-11T20:19:43;20.97;;;12.17;;
49946;SDS011;35839;48.662;13.300;2022-12-11T20:22:09;25.83;;;15.57;;
49946;SDS011;35839;48.662;13.300;2022-12-11T20:24:35;21.47;;;13.17;;
49946;SDS011;35839;48.662;13.300;2022-12-11T20:27:00;21.27;;;12.43;;
49946;SDS011;35839;48.662;13.300;2022-12-11T20:29:26;21.13;;;12.67;;
49946;SDS011;35839;48.662;13.300;2022-12-11T20:31:51;23.07;;;13.03;;
49946;SDS011;35839;48.662;13.300;2022-12-11T20:34:17;23.63;;;12.93;;
49946;SDS011;35839;48.662;13.300;2022-12-11T20:36:45;24.43;;;13.20;;
49946;SDS011;35839;48.662;13.300;2022-12-11T20:39:11;22.00;;;12.63;;
49946;SDS011;35839;48.662;13.300;2022-12-11T20:41:36;24.80;;;13.20;;
49946;SDS011;35839;48.662;13.300;2022-12-11T20:44:02;24.13;;;12.13;;
49946;SDS011;35839;48.662;13.300;2022-12-11T20:46:27;20.83;;;12.13;;
49946;SDS011;35839;48.662;13.300;2022-12-11T20:48:54;21.17;;;11.40;;
49946;SDS011;35839;48.662;13.300;2022-12-11T20:51:22;22.20;;;11.77;;
49946;SDS011;35839;48.662;13.300;2022-12-11T20:53:49;21.30;;;11.47;;
49946;SDS011;35839;48.662;13.300;2022-12-11T20:56:21;19.47;;;11.53;;
49946;SDS011;35839;48.662;13.300;2022-12-11T20:58:47;21.90;;;11.83;;
49946;SDS011;35839;48.662;13.300;2022-12-11T21:01:31;18.80;;;11.10;;
49946;SDS011;35839;48.662;13.300;2022-12-11T21:03:57;35.53;;;20.27;;
49946;SDS011;35839;48.662;13.300;2022-12-11T21:06:25;22.77;;;13.77;;
49946;SDS011;35839;48.662;13.300;2022-12-11T21:08:55;20.63;;;12.27;;
49946;SDS011;35839;48.662;13.300;2022-12-11T21:11:21;24.77;;;12.30;;
49946;SDS011;35839;48.662;13.300;2022-12-11T21:13:47;21.33;;;11.13;;
49946;SDS011;35839;48.662;13.300;2022-12-11T21:16:12;18.83;;;10.23;;
49946;SDS011;35839;48.662;13.300;2022-12-11T21:18:37;17.47;;;10.60;;
49946;SDS011;35839;48.662;13.300;2022-12-11T21:21:04;20.07;;;10.83;;
49946;SDS011;35839;48.662;13.300;2022-12-11T21:23:30;20.10;;;10.47;;
49946;SDS011;35839;48.662;13.300;2022-12-11T21:25:55;21.37;;;12.13;;
49946;SDS011;35839;48.662;13.300;2022-12-11T21:28:21;21.13;;;12.07;;
49946;SDS011;35839;48.662;13.300;2022-12-11T21:30:46;22.00;;;11.90;;
49946;SDS011;35839;48.662;13.300;2022-12-11T21:33:12;21.50;;;12.00;;
49946;SDS011;35839;48.662;13.300;2022-12-11T21:35:37;23.00;;;11.53;;
49946;SDS011;35839;48.662;13.300;2022-12-11T21:38:02;21.83;;;12.13;;
49946;SDS011;35839;48.662;13.300;2022-12-11T21:40:28;21.87;;;11.07;;
49946;SDS011;35839;48.662;13.300;2022-12-11T21:42:54;20.77;;;11.20;;
49946;SDS011;35839;48.662;13.300;2022-12-11T21:45:19;21.67;;;11.80;;
49946;SDS011;35839;48.662;13.300;2022-12-11T21:47:45;20.83;;;12.70;;
49946;SDS011;35839;48.662;13.300;2022-12-11T21:50:10;19.57;;;10.77;;
49946;SDS011;35839;48.662;13.300;2022-12-11T21:52:36;24.67;;;12.00;;
49946;SDS011;35839;48.662;13.300;2022-12-11T21:55:03;20.57;;;12.47;;
49946;SDS011;35839;48.662;13.300;2022-12-11T21:57:29;20.93;;;10.97;;
49946;SDS011;35839;48.662;13.300;2022-12-11T21:59:54;20.63;;;11.47;;
49946;SDS011;35839;48.662;13.300;2022-12-11T22:02:20;23.30;;;11.87;;
49946;SDS011;35839;48.662;13.300;2022-12-11T22:04:45;22.03;;;12.23;;
49946;SDS011;35839;48.662;13.300;2022-12-11T22:07:11;22.57;;;12.37;;
49946;SDS011;35839;48.662;13.300;2022-12-11T22:09:37;18.60;;;11.53;;
49946;SDS011;35839;48.662;13.300;2022-12-11T22:12:02;18.57;;;11.53;;
49946;SDS011;35839;48.662;13.300;2022-12-11T22:14:28;19.20;;;11.30;;
49946;SDS011;35839;48.662;13.300;2022-12-11T22:16:55;23.47;;;11.63;;
49946;SDS011;35839;48.662;13.300;2022-12-11T22:19:21;22.17;;;11.80;;
49946;SDS011;35839;48.662;13.300;2022-12-11T22:21:46;21.97;;;12.10;;
49946;SDS011;35839;48.662;13.300;2022-12-11T22:24:12;23.13;;;12.53;;
49946;SDS011;35839;48.662;13.300;2022-12-11T22:26:38;19.87;;;11.13;;
49946;SDS011;35839;48.662;13.300;2022-12-11T22:29:04;23.00;;;11.67;;
49946;SDS011;35839;48.662;13.300;2022-12-11T22:31:29;24.10;;;11.97;;
49946;SDS011;35839;48.662;13.300;2022-12-11T22:33:55;22.50;;;11.30;;
49946;SDS011;35839;48.662;13.300;2022-12-11T22:36:21;27.20;;;12.10;;
49946;SDS011;35839;48.662;13.300;2022-12-11T22:38:48;23.33;;;12.33;;
49946;SDS011;35839;48.662;13.300;2022-12-11T22:41:15;22.73;;;12.00;;
49946;SDS011;35839;48.662;13.300;2022-12-11T22:43:46;21.70;;;11.67;;
49946;SDS011;35839;48.662;13.300;2022-12-11T22:46:15;23.00;;;13.50;;
49946;SDS011;35839;48.662;13.300;2022-12-11T22:48:41;19.75;;;10.55;;
49946;SDS011;35839;48.662;13.300;2022-12-11T22:51:06;21.17;;;10.47;;
49946;SDS011;35839;48.662;13.300;2022-12-11T22:53:32;20.40;;;11.70;;
49946;SDS011;35839;48.662;13.300;2022-12-11T22:55:57;20.83;;;10.93;;
49946;SDS011;35839;48.662;13.300;2022-12-11T22:58:23;22.10;;;11.17;;
49946;SDS011;35839;48.662;13.300;2022-12-11T23:00:48;20.23;;;10.37;;
49946;SDS011;35839;48.662;13.300;2022-12-11T23:03:14;17.57;;;9.77;;
49946;SDS011;35839;48.662;13.300;2022-12-11T23:05:39;19.97;;;9.67;;
49946;SDS011;35839;48.662;13.300;2022-12-11T23:08:05;21.53;;;10.77;;
49946;SDS011;35839;48.662;13.300;2022-12-11T23:10:31;20.77;;;11.07;;
49946;SDS011;35839;48.662;13.300;2022-12-11T23:12:56;20.07;;;11.03;;
49946;SDS011;35839;48.662;13.300;2022-12-11T23:15:22;23.87;;;11.40;;
49946;SDS011;35839;48.662;13.300;2022-12-11T23:17:47;20.37;;;10.97;;
49946;SDS011;35839;48.662;13.300;2022-12-11T23:20:13;24.90;;;10.67;;
49946;SDS011;35839;48.662;13.300;2022-12-11T23:22:38;19.90;;;10.53;;
49946;SDS011;35839;48.662;13.300;2022-12-11T23:25:04;18.17;;;9.70;;
